Time;durP1;ratioP1;P1;durP2;ratioP2;P2;SDS_P1;SDS_P2;PMS_P1;PMS_P2;Temp;Humidity;BMP_temperature;BMP_pressure;BME280_temperature;BME280_humidity;BME280_pressure;Samples;Min_cycle;Max_cycle;Signal;HPM_P1;HPM_P2
2020/12/16 00:00:13;;;;;;;17.63;11.00;;;;;;;7.29;73.35;101079.72;688867;28;44388;-61
2020/12/16 00:00:34;;;;;;;15.98;10.98;;;;;;;7.29;73.43;101086.91;689818;28;22424;-61
2020/12/16 00:00:56;;;;;;;15.73;10.45;;;;;;;7.27;73.70;101081.69;689693;28;22403;-61
2020/12/16 00:01:17;;;;;;;15.93;10.68;;;;;;;7.28;74.04;101087.91;689346;28;44359;-61
2020/12/16 00:01:38;;;;;;;16.23;10.93;;;;;;;7.27;73.83;101083.53;690115;28;21540;-60
2020/12/16 00:02:00;;;;;;;16.30;10.68;;;;;;;7.26;73.82;101080.00;688932;28;46415;-61
2020/12/16 00:02:23;;;;;;;16.23;11.20;;;;;;;7.27;73.89;101083.53;689901;28;23484;-61
2020/12/16 00:02:44;;;;;;;15.27;10.65;;;;;;;7.28;73.66;101086.06;688881;28;51858;-62
2020/12/16 00:03:05;;;;;;;15.38;10.65;;;;;;;7.27;73.85;101079.00;689946;28;21519;-61
2020/12/16 00:03:26;;;;;;;15.63;10.68;;;;;;;7.28;73.52;101080.69;690024;28;22395;-61
2020/12/16 00:03:48;;;;;;;18.23;10.95;;;;;;;7.28;73.72;101083.38;690087;28;21554;-61
2020/12/16 00:04:09;;;;;;;16.35;11.23;;;;;;;7.29;73.71;101086.91;689174;28;45277;-61
2020/12/16 00:04:31;;;;;;;15.82;11.00;;;;;;;7.28;73.92;101082.53;689969;28;21307;-61
2020/12/16 00:04:52;;;;;;;16.55;11.13;;;;;;;7.28;73.74;101085.22;688876;28;46351;-61
2020/12/16 00:05:14;;;;;;;15.60;10.50;;;;;;;7.27;73.60;101088.91;689244;28;21332;-60
2020/12/16 00:05:35;;;;;;;15.77;10.60;;;;;;;7.28;73.87;101090.59;689292;28;45284;-61
2020/12/16 00:05:57;;;;;;;16.17;10.65;;;;;;;7.27;74.09;101086.22;690262;28;15769;-60
2020/12/16 00:06:18;;;;;;;15.75;10.82;;;;;;;7.26;74.22;101089.88;689178;28;46390;-63
2020/12/16 00:06:40;;;;;;;17.42;10.82;;;;;;;7.27;74.12;101088.91;689985;28;23404;-64
2020/12/16 00:07:01;;;;;;;16.70;10.50;;;;;;;7.27;74.12;101091.59;688302;28;45244;-63
2020/12/16 00:07:22;;;;;;;16.23;10.48;;;;;;;7.27;74.12;101096.97;689698;28;22410;-61
2020/12/16 00:07:44;;;;;;;16.95;10.50;;;;;;;7.27;73.99;101099.66;689761;28;23485;-61
2020/12/16 00:08:05;;;;;;;14.65;10.07;;;;;;;7.28;73.76;101090.59;689084;28;45279;-60
2020/12/16 00:08:28;;;;;;;15.25;10.40;;;;;;;7.28;73.81;101095.97;689187;28;45385;-63
2020/12/16 00:08:49;;;;;;;16.88;10.73;;;;;;;7.29;73.96;101094.97;689285;28;44410;-64
2020/12/16 00:09:10;;;;;;;16.63;11.07;;;;;;;7.27;74.33;101100.47;690363;28;984;-63
2020/12/16 00:09:31;;;;;;;15.52;10.68;;;;;;;7.28;73.96;101101.34;689250;28;22402;-61
2020/12/16 00:09:53;;;;;;;16.15;10.73;;;;;;;7.28;73.85;101096.81;689874;28;21560;-64
2020/12/16 00:10:15;;;;;;;17.50;10.68;;;;;;;7.30;73.67;101096.66;690686;28;882;-63
2020/12/16 00:10:36;;;;;;;15.50;10.55;;;;;;;7.28;73.84;101095.97;688632;28;45245;-63
2020/12/16 00:10:57;;;;;;;15.05;10.27;;;;;;;7.28;74.05;101101.34;689967;28;21544;-64
2020/12/16 00:11:19;;;;;;;14.57;10.38;;;;;;;7.27;73.96;101097.78;688776;28;45547;-63
2020/12/16 00:11:40;;;;;;;17.20;10.90;;;;;;;7.29;73.90;101097.66;690548;28;913;-61
2020/12/16 00:12:02;;;;;;;16.38;10.70;;;;;;;7.29;73.90;101103.03;689701;28;12924;-61
2020/12/16 00:12:23;;;;;;;19.20;10.98;;;;;;;7.29;73.84;101100.34;689219;28;44384;-61
2020/12/16 00:12:45;;;;;;;16.30;11.10;;;;;;;7.29;73.63;101103.91;687001;28;23471;-61
2020/12/16 00:13:10;;;;;;;16.05;10.70;;;;;;;7.28;73.65;101104.88;686253;28;44413;-62
2020/12/16 00:13:32;;;;;;;17.30;10.82;;;;;;;7.30;73.73;101102.88;683752;28;114938;-61
2020/12/16 00:13:54;;;;;;;16.65;10.75;;;;;;;7.32;73.69;101105.41;684954;28;1026;-61
2020/12/16 00:14:16;;;;;;;16.58;11.10;;;;;;;7.32;73.59;101102.72;680707;29;39648;-61
2020/12/16 00:14:43;;;;;;;15.52;10.23;;;;;;;7.31;73.71;101099.22;681624;28;1376;-62
2020/12/16 00:15:06;;;;;;;15.18;10.35;;;;;;;7.29;73.48;101106.56;679722;29;73275;-61
2020/12/16 00:15:28;;;;;;;14.88;10.18;;;;;;;7.30;73.68;101104.72;679978;29;953;-61
2020/12/16 00:15:50;;;;;;;15.40;10.35;;;;;;;7.29;73.86;101105.72;682940;28;946;-62
2020/12/16 00:16:12;;;;;;;15.73;10.20;;;;;;;7.28;73.93;101112.94;683391;28;22533;-62
2020/12/16 00:16:34;;;;;;;16.20;10.43;;;;;;;7.29;73.93;101114.63;683565;28;46404;-61
2020/12/16 00:16:55;;;;;;;16.85;10.55;;;;;;;7.29;73.82;101109.25;680898;29;46256;-61
2020/12/16 00:17:17;;;;;;;16.17;10.48;;;;;;;7.28;73.66;101112.94;682033;28;22363;-62
2020/12/16 00:17:39;;;;;;;16.02;10.40;;;;;;;7.29;73.63;101117.31;683566;28;44929;-62
2020/12/16 00:18:00;;;;;;;15.75;10.60;;;;;;;7.30;73.50;101119.00;683475;28;43065;-60
2020/12/16 00:18:22;;;;;;;16.08;10.65;;;;;;;7.30;73.65;101115.47;681709;29;1954;-62
2020/12/16 00:18:43;;;;;;;17.90;10.77;;;;;;;7.30;73.54;101118.16;681300;28;44522;-62
2020/12/16 00:19:05;;;;;;;17.25;11.07;;;;;;;7.30;73.56;101116.31;680517;29;23031;-62
2020/12/16 00:19:27;;;;;;;15.45;10.70;;;;;;;7.30;73.39;101119.00;676811;28;46990;-62
2020/12/16 00:19:49;;;;;;;16.67;10.43;;;;;;;7.31;73.53;101111.81;679171;29;46336;-61
2020/12/16 00:20:14;;;;;;;16.58;10.35;;;;;;;7.31;73.63;101119.88;683056;28;1304;-61
2020/12/16 00:20:42;;;;;;;14.95;9.90;;;;;;;7.31;73.55;101122.56;682149;28;66242;-60
2020/12/16 00:21:10;;;;;;;14.95;10.63;;;;;;;7.31;73.73;101112.66;685297;28;60531;-62
2020/12/16 00:21:31;;;;;;;15.48;10.07;;;;;;;7.30;73.58;101118.16;685656;28;36846;-61
2020/12/16 00:21:53;;;;;;;15.30;10.20;;;;;;;7.30;73.65;101120.84;686419;28;22515;-62
2020/12/16 00:22:15;;;;;;;15.95;10.82;;;;;;;7.29;74.13;101111.94;683578;28;1916;-62
2020/12/16 00:22:37;;;;;;;16.42;10.90;;;;;;;7.29;74.40;101119.16;677290;29;46242;-61
2020/12/16 00:23:00;;;;;;;15.93;10.30;;;;;;;7.28;74.27;101126.38;677241;29;47551;-62
2020/12/16 00:23:21;;;;;;;16.92;10.32;;;;;;;7.29;73.92;101121.84;675007;29;70011;-62
2020/12/16 00:23:43;;;;;;;18.42;10.15;;;;;;;7.29;73.82;101122.69;676687;29;16244;-62
2020/12/16 00:24:04;;;;;;;14.75;9.85;;;;;;;7.30;73.76;101123.53;676631;29;46343;-62
2020/12/16 00:24:26;;;;;;;15.23;10.48;;;;;;;7.29;73.82;101130.75;679517;28;45081;-62
2020/12/16 00:24:47;;;;;;;15.23;10.60;;;;;;;7.29;73.87;101128.06;684262;28;22374;-61
2020/12/16 00:25:10;;;;;;;15.32;10.20;;;;;;;7.29;73.68;101132.56;684641;28;22567;-62
2020/12/16 00:25:32;;;;;;;15.40;10.90;;;;;;;7.29;73.68;101129.91;683195;28;48349;-61
2020/12/16 00:25:53;;;;;;;17.90;10.88;;;;;;;7.30;73.80;101128.91;683432;28;44401;-61
2020/12/16 00:26:20;;;;;;;16.42;10.48;;;;;;;7.29;73.60;101130.75;681267;29;36318;-62
2020/12/16 00:26:43;;;;;;;16.77;10.68;;;;;;;7.30;74.13;101131.59;682328;29;1210;-62
2020/12/16 00:27:05;;;;;;;16.95;11.20;;;;;;;7.28;74.23;101129.06;681982;29;2213;-62
2020/12/16 00:27:28;;;;;;;17.40;10.98;;;;;;;7.28;74.09;101137.13;685063;28;1772;-61
2020/12/16 00:27:56;;;;;;;15.45;10.30;;;;;;;7.28;74.36;101130.91;685455;28;59967;-61
2020/12/16 00:28:23;;;;;;;14.98;10.38;;;;;;;7.28;74.38;101131.75;688158;28;59436;-60
2020/12/16 00:28:45;;;;;;;16.52;10.55;;;;;;;7.29;74.28;101143.31;686955;28;19162;-62
2020/12/16 00:29:06;;;;;;;17.75;10.77;;;;;;;7.29;74.29;101138.81;685408;28;1157;-61
2020/12/16 00:29:28;;;;;;;17.38;10.82;;;;;;;7.29;73.96;101138.81;683701;28;4345;-61
2020/12/16 00:29:51;;;;;;;15.80;10.93;;;;;;;7.30;74.03;101134.28;685221;28;910;-60
2020/12/16 00:30:14;;;;;;;15.50;10.82;;;;;;;7.30;74.04;101140.50;685298;28;1404;-61
2020/12/16 00:30:37;;;;;;;16.15;10.48;;;;;;;7.29;74.14;101140.63;683914;28;2638;-61
2020/12/16 00:30:59;;;;;;;17.00;10.50;;;;;;;7.30;73.93;101140.50;683972;28;36058;-61
2020/12/16 00:31:22;;;;;;;16.77;10.55;;;;;;;7.30;74.00;101140.50;685124;28;46706;-61
2020/12/16 00:31:45;;;;;;;15.73;10.38;;;;;;;7.29;73.85;101146.88;685359;28;2460;-62
2020/12/16 00:32:07;;;;;;;18.48;11.07;;;;;;;7.29;74.05;101140.63;685186;28;1957;-61
2020/12/16 00:32:29;;;;;;;14.02;9.93;;;;;;;7.28;74.15;101141.66;683642;28;3188;-62
2020/12/16 00:32:51;;;;;;;15.25;10.63;;;;;;;7.29;74.31;101146.00;681738;29;27291;-62
2020/12/16 00:33:12;;;;;;;16.23;10.75;;;;;;;7.29;74.29;101137.94;678320;29;44578;-61
2020/12/16 00:33:34;;;;;;;16.75;10.50;;;;;;;7.28;74.19;101142.50;677400;29;21523;-61
2020/12/16 00:33:56;;;;;;;14.23;9.98;;;;;;;7.29;74.04;101143.31;675279;29;44855;-62
2020/12/16 00:34:18;;;;;;;14.63;10.18;;;;;;;7.29;73.97;101141.50;675695;29;47369;-62
2020/12/16 00:34:39;;;;;;;15.65;10.27;;;;;;;7.29;73.96;101141.50;679586;29;23047;-62
2020/12/16 00:35:01;;;;;;;15.60;10.50;;;;;;;7.28;74.08;101142.50;682790;28;1171;-62
2020/12/16 00:35:23;;;;;;;16.48;10.60;;;;;;;7.27;74.14;101138.09;684634;28;31345;-62
2020/12/16 00:35:45;;;;;;;16.50;11.23;;;;;;;7.29;74.01;101141.50;686857;28;31361;-62
2020/12/16 00:36:07;;;;;;;15.93;10.82;;;;;;;7.29;74.05;101146.00;685626;28;46214;-62
2020/12/16 00:36:28;;;;;;;15.50;10.45;;;;;;;7.29;73.91;101144.19;684671;28;8869;-62
2020/12/16 00:36:50;;;;;;;14.27;10.63;;;;;;;7.29;74.07;101143.31;684561;28;5507;-62
2020/12/16 00:37:12;;;;;;;14.40;9.85;;;;;;;7.29;73.95;101141.50;684822;28;910;-62
2020/12/16 00:37:35;;;;;;;13.25;9.95;;;;;;;7.29;73.64;101144.19;683345;28;45680;-62
2020/12/16 00:37:57;;;;;;;15.70;10.18;;;;;;;7.29;73.95;101148.69;680994;28;68019;-61
2020/12/16 00:38:20;;;;;;;15.52;10.18;;;;;;;7.29;74.11;101140.63;684291;28;45889;-61
2020/12/16 00:38:45;;;;;;;15.40;10.70;;;;;;;7.28;74.09;101142.50;684571;28;69430;-61
2020/12/16 00:39:08;;;;;;;14.68;10.35;;;;;;;7.28;74.23;101145.19;683838;28;113010;-61
2020/12/16 00:39:30;;;;;;;14.80;10.50;;;;;;;7.27;74.30;101146.16;683925;28;92189;-61
2020/12/16 00:39:52;;;;;;;13.88;10.38;;;;;;;7.27;74.21;101148.84;687911;28;41470;-61
2020/12/16 00:40:16;;;;;;;15.05;10.60;;;;;;;7.27;74.13;101146.16;686562;28;30582;-62
2020/12/16 00:40:38;;;;;;;15.35;10.55;;;;;;;7.27;74.27;101146.16;684535;28;92099;-62
2020/12/16 00:40:59;;;;;;;15.70;10.60;;;;;;;7.26;74.32;101144.47;681215;29;22816;-60
2020/12/16 00:41:21;;;;;;;16.27;10.32;;;;;;;7.28;74.16;101142.50;676059;29;39695;-61
2020/12/16 00:41:43;;;;;;;15.27;10.55;;;;;;;7.28;74.25;101147.03;677393;29;2206;-62
2020/12/16 00:42:06;;;;;;;15.57;10.52;;;;;;;7.27;74.63;101151.53;676456;29;12042;-62
2020/12/16 00:42:28;;;;;;;15.88;10.32;;;;;;;7.27;74.76;101151.53;674623;29;70544;-61
2020/12/16 00:42:51;;;;;;;14.95;10.27;;;;;;;7.26;74.83;101144.47;673089;29;46234;-62
2020/12/16 00:43:12;;;;;;;15.10;10.23;;;;;;;7.27;74.51;101148.00;674389;29;68481;-61
2020/12/16 00:43:34;;;;;;;16.80;10.57;;;;;;;7.26;74.74;101149.84;681164;28;24665;-62
2020/12/16 00:43:57;;;;;;;15.52;10.68;;;;;;;7.27;75.01;101150.69;681144;28;69854;-61
2020/12/16 00:44:19;;;;;;;15.65;10.45;;;;;;;7.27;74.73;101158.75;681306;29;18974;-61
2020/12/16 00:44:40;;;;;;;16.20;10.25;;;;;;;7.27;74.36;101148.84;681286;28;36104;-61
2020/12/16 00:45:02;;;;;;;15.55;10.82;;;;;;;7.27;74.38;101145.31;681573;29;6609;-62
2020/12/16 00:45:24;;;;;;;15.60;10.30;;;;;;;7.26;74.48;101152.53;680055;29;15624;-61
2020/12/16 00:45:45;;;;;;;15.77;10.27;;;;;;;7.27;74.51;101156.91;679339;29;46340;-61
2020/12/16 00:46:07;;;;;;;16.33;10.88;;;;;;;7.28;74.26;101153.22;679900;29;22421;-61
2020/12/16 00:46:29;;;;;;;16.55;11.00;;;;;;;7.28;74.23;101147.03;681793;28;22465;-61
2020/12/16 00:46:51;;;;;;;16.50;10.80;;;;;;;7.28;74.40;101149.72;678498;29;19967;-61
2020/12/16 00:47:12;;;;;;;16.00;10.98;;;;;;;7.27;74.45;101154.22;679254;29;21310;-62
2020/12/16 00:47:34;;;;;;;15.13;10.63;;;;;;;7.27;74.25;101150.69;676720;29;12603;-61
2020/12/16 00:47:56;;;;;;;15.68;10.98;;;;;;;7.26;74.20;101149.84;677871;29;42836;-61
2020/12/16 00:48:19;;;;;;;16.55;10.98;;;;;;;7.26;74.43;101152.53;677350;29;67114;-61
2020/12/16 00:48:41;;;;;;;15.80;10.90;;;;;;;7.26;74.62;101163.28;684449;28;1163;-60
2020/12/16 00:49:03;;;;;;;15.00;10.48;;;;;;;7.26;74.36;101160.59;684380;28;8672;-61
2020/12/16 00:49:25;;;;;;;14.10;10.32;;;;;;;7.26;74.70;101155.22;684432;28;4101;-61
2020/12/16 00:49:48;;;;;;;15.70;10.20;;;;;;;7.26;74.64;101162.44;681864;29;15974;-61
2020/12/16 00:50:10;;;;;;;16.10;10.30;;;;;;;7.26;74.73;101154.38;675481;29;44260;-61
2020/12/16 00:50:32;;;;;;;14.27;10.43;;;;;;;7.27;74.55;101153.38;676732;29;4370;-61
2020/12/16 00:50:58;;;;;;;14.85;10.32;;;;;;;7.27;74.36;101159.59;678755;29;38302;-61
2020/12/16 00:51:19;;;;;;;14.52;10.25;;;;;;;7.27;74.38;101158.75;678020;29;42567;-62
2020/12/16 00:51:42;;;;;;;16.35;10.85;;;;;;;7.28;74.32;101163.16;681987;29;1639;-61
2020/12/16 00:52:04;;;;;;;17.45;10.90;;;;;;;7.28;74.10;101160.47;683085;28;1088;-60
2020/12/16 00:52:27;;;;;;;17.35;10.60;;;;;;;7.29;74.27;101159.44;682706;28;1373;-61
2020/12/16 00:52:49;;;;;;;15.23;10.30;;;;;;;7.29;74.24;101163.00;682084;28;69503;-61
2020/12/16 00:53:11;;;;;;;16.70;10.23;;;;;;;7.27;74.17;101162.28;682194;29;1959;-61
2020/12/16 00:53:39;;;;;;;15.25;10.32;;;;;;;7.28;74.68;101168.53;677284;29;140396;-61
2020/12/16 00:54:02;;;;;;;16.63;10.88;;;;;;;7.28;74.74;101163.16;678448;29;29194;-60
2020/12/16 00:54:23;;;;;;;15.50;10.68;;;;;;;7.26;75.18;101174.03;678674;29;30847;-61
2020/12/16 00:54:46;;;;;;;15.00;10.43;;;;;;;7.26;75.08;101170.47;679529;29;1138;-61
2020/12/16 00:55:08;;;;;;;16.13;10.48;;;;;;;7.28;74.81;101168.53;678325;29;1507;-61
2020/12/16 00:55:31;;;;;;;16.38;11.07;;;;;;;7.29;74.69;101172.88;676629;29;69237;-60
2020/12/16 00:55:53;;;;;;;16.90;11.00;;;;;;;7.28;74.46;101173.91;683490;28;44828;-60
2020/12/16 00:56:15;;;;;;;16.90;11.15;;;;;;;7.29;74.61;101181.81;682903;28;62213;-62
2020/12/16 00:56:42;;;;;;;16.02;10.70;;;;;;;7.30;74.35;101178.09;679377;29;1902;-60
2020/12/16 00:57:04;;;;;;;15.88;11.05;;;;;;;7.29;74.38;101176.44;674594;29;137556;-60
2020/12/16 00:57:26;;;;;;;15.40;10.60;;;;;;;7.29;74.76;101180.94;680689;28;47532;-61
2020/12/16 00:57:48;;;;;;;16.15;11.45;;;;;;;7.29;74.89;101178.25;681700;29;12800;-61
2020/12/16 00:58:10;;;;;;;14.57;10.75;;;;;;;7.28;74.77;101179.28;679847;29;71488;-61
2020/12/16 00:58:36;;;;;;;16.73;11.13;;;;;;;7.28;74.76;101174.72;674626;29;62780;-61
2020/12/16 00:58:58;;;;;;;16.45;10.45;;;;;;;7.28;74.81;101177.41;676597;29;22259;-61
2020/12/16 00:59:21;;;;;;;15.63;10.15;;;;;;;7.27;75.01;101181.09;675204;29;46616;-61
2020/12/16 00:59:42;;;;;;;14.82;10.18;;;;;;;7.27;74.98;101178.41;674924;29;61053;-61
2020/12/16 01:00:07;;;;;;;15.70;10.65;;;;;;;7.28;74.79;101177.41;677761;29;29963;-60
2020/12/16 01:00:29;;;;;;;17.85;10.88;;;;;;;7.29;74.62;101175.56;675995;29;72408;-61
2020/12/16 01:00:57;;;;;;;14.93;10.45;;;;;;;7.30;74.62;101182.66;669441;29;137848;-61
2020/12/16 01:01:21;;;;;;;14.98;10.45;;;;;;;7.29;74.42;101180.94;670618;29;92790;-62
2020/12/16 01:01:44;;;;;;;14.77;10.10;;;;;;;7.28;74.55;101181.97;671390;29;27691;-61
2020/12/16 01:02:07;;;;;;;14.20;10.15;;;;;;;7.27;74.57;101178.41;673707;29;9687;-61
2020/12/16 01:02:28;;;;;;;14.70;10.20;;;;;;;7.29;74.58;101178.25;673096;29;46729;-61
2020/12/16 01:02:50;;;;;;;15.68;10.52;;;;;;;7.29;74.59;101180.94;674088;29;37728;-61
2020/12/16 01:03:16;;;;;;;16.27;10.65;;;;;;;7.28;74.56;101181.97;674015;29;137893;-61
2020/12/16 01:03:39;;;;;;;15.32;10.45;;;;;;;7.28;74.62;101185.47;678195;29;45376;-61
2020/12/16 01:04:01;;;;;;;16.23;10.52;;;;;;;7.29;74.78;101186.31;681315;28;45238;-61
2020/12/16 01:04:24;;;;;;;15.40;11.02;;;;;;;7.29;74.57;101184.50;681976;28;84983;-61
2020/12/16 01:04:46;;;;;;;14.98;10.75;;;;;;;7.29;74.52;101186.31;683338;28;22416;-61
2020/12/16 01:05:08;;;;;;;15.80;10.48;;;;;;;7.29;74.64;101187.19;680690;28;39405;-61
2020/12/16 01:05:30;;;;;;;15.80;10.25;;;;;;;7.28;75.00;101179.28;678424;29;28251;-61
2020/12/16 01:05:51;;;;;;;16.90;10.75;;;;;;;7.28;74.94;101179.28;673329;29;25304;-60
2020/12/16 01:06:14;;;;;;;17.50;10.80;;;;;;;7.27;74.98;101181.09;675495;29;35049;-62
2020/12/16 01:06:37;;;;;;;16.70;10.23;;;;;;;7.26;75.03;101182.09;674372;29;45227;-60
2020/12/16 01:06:58;;;;;;;17.05;10.52;;;;;;;7.28;75.04;101176.59;676761;29;44668;-61
2020/12/16 01:07:20;;;;;;;15.98;11.05;;;;;;;7.27;75.00;101183.78;678315;29;47068;-61
2020/12/16 01:07:41;;;;;;;15.93;10.65;;;;;;;7.28;74.81;101187.34;676986;29;46269;-61
2020/12/16 01:08:03;;;;;;;15.93;10.73;;;;;;;7.29;74.99;101186.31;671046;29;23978;-61
2020/12/16 01:08:26;;;;;;;16.95;10.77;;;;;;;7.27;74.91;101181.09;672755;29;46181;-61
2020/12/16 01:08:50;;;;;;;17.10;10.45;;;;;;;7.27;75.04;101181.09;670762;29;113667;-61
2020/12/16 01:09:12;;;;;;;16.77;10.48;;;;;;;7.27;74.93;101175.72;673389;29;31606;-61
2020/12/16 01:09:33;;;;;;;16.50;10.75;;;;;;;7.27;75.16;101186.47;676822;29;23261;-61
2020/12/16 01:09:56;;;;;;;17.00;11.13;;;;;;;7.28;75.23;101184.63;677585;29;69416;-61
2020/12/16 01:10:18;;;;;;;15.18;10.48;;;;;;;7.27;75.34;101185.63;680497;29;44493;-61
2020/12/16 01:10:40;;;;;;;16.52;10.50;;;;;;;7.27;75.53;101185.63;680183;29;46515;-61
2020/12/16 01:11:02;;;;;;;18.13;11.18;;;;;;;7.26;75.36;101187.47;673224;29;44219;-61
2020/12/16 01:11:27;;;;;;;16.08;11.07;;;;;;;7.25;75.44;101179.56;673993;29;94758;-61
2020/12/16 01:11:48;;;;;;;15.40;10.52;;;;;;;7.25;75.57;101190.31;675766;29;19425;-60
2020/12/16 01:12:10;;;;;;;15.68;10.50;;;;;;;7.25;75.37;101190.31;677672;29;48545;-61
2020/12/16 01:12:37;;;;;;;16.10;10.75;;;;;;;7.26;75.51;101202.72;671395;29;94223;-61
2020/12/16 01:12:59;;;;;;;16.42;10.63;;;;;;;7.25;75.24;101201.06;673443;29;117233;-61
2020/12/16 01:13:23;;;;;;;17.35;10.90;;;;;;;7.26;75.30;101191.97;673996;29;92082;-61
2020/12/16 01:13:45;;;;;;;14.70;10.10;;;;;;;7.25;75.16;101187.63;675253;29;45686;-61
2020/12/16 01:14:09;;;;;;;14.90;10.48;;;;;;;7.27;75.01;101191.00;673828;29;92432;-61
2020/12/16 01:14:31;;;;;;;15.90;10.25;;;;;;;7.26;74.75;101187.47;673967;29;46282;-61
2020/12/16 01:14:53;;;;;;;16.10;10.65;;;;;;;7.26;74.93;101190.16;674371;29;45168;-61
2020/12/16 01:15:16;;;;;;;17.08;10.60;;;;;;;7.25;74.98;101193.00;676989;29;47756;-61
2020/12/16 01:15:38;;;;;;;18.48;11.27;;;;;;;7.27;75.03;101196.38;677966;29;40255;-61
2020/12/16 01:16:03;;;;;;;16.10;11.05;;;;;;;7.27;74.92;101199.06;678613;28;112277;-61
2020/12/16 01:16:25;;;;;;;15.95;11.13;;;;;;;7.28;74.83;101195.38;680762;28;44409;-61
2020/12/16 01:16:47;;;;;;;16.20;10.80;;;;;;;7.27;74.86;101191.00;681356;28;32770;-61
2020/12/16 01:17:12;;;;;;;16.00;10.02;;;;;;;7.28;74.77;101198.91;678706;29;104965;-61
2020/12/16 01:17:40;;;;;;;16.45;10.65;;;;;;;7.29;74.96;101194.38;680778;28;44510;-61
2020/12/16 01:18:02;;;;;;;16.13;10.68;;;;;;;7.28;75.04;101198.06;679907;28;132061;-61
2020/12/16 01:18:32;;;;;;;15.02;10.07;;;;;;;7.27;74.95;101194.53;676073;28;119665;-61
2020/12/16 01:19:00;;;;;;;15.70;10.70;;;;;;;7.27;75.03;101202.59;672375;29;138385;-61
2020/12/16 01:19:28;;;;;;;14.88;10.05;;;;;;;7.27;75.30;101201.75;668867;29;138287;-61
2020/12/16 01:19:50;;;;;;;15.70;10.77;;;;;;;7.28;75.10;101204.28;671492;29;17508;-60
2020/12/16 01:20:12;;;;;;;15.60;10.57;;;;;;;7.29;74.92;101194.38;671649;29;9045;-61
2020/12/16 01:20:35;;;;;;;15.32;10.95;;;;;;;7.29;75.04;101199.75;673874;29;17775;-61
2020/12/16 01:20:56;;;;;;;15.63;10.70;;;;;;;7.28;74.80;101201.59;672186;29;69292;-61
2020/12/16 01:21:38;;;;;;;16.10;10.15;;;;;;;7.29;74.99;101197.06;673846;29;134772;-61
2020/12/16 01:22:00;;;;;;;16.25;10.57;;;;;;;7.29;74.87;101207.81;680244;29;46395;-61
2020/12/16 01:22:23;;;;;;;16.98;10.52;;;;;;;7.27;75.00;101202.59;676419;29;53097;-61
2020/12/16 01:22:46;;;;;;;17.90;10.52;;;;;;;7.28;74.79;101206.97;674894;29;47323;-61
2020/12/16 01:23:09;;;;;;;15.18;10.55;;;;;;;7.27;74.92;101201.75;677949;29;41644;-60
2020/12/16 01:23:31;;;;;;;15.15;10.38;;;;;;;7.27;75.17;101202.59;675094;29;59979;-60
2020/12/16 01:23:54;;;;;;;14.65;9.95;;;;;;;7.27;75.20;101199.91;673806;29;29388;-61
2020/12/16 01:24:16;;;;;;;16.40;10.43;;;;;;;7.27;75.01;101197.22;675074;29;1147;-61
2020/12/16 01:24:38;;;;;;;16.50;10.63;;;;;;;7.29;75.04;101207.81;677818;29;10474;-61
2020/12/16 01:25:00;;;;;;;16.00;10.88;;;;;;;7.28;74.97;101200.75;679195;29;1216;-61
2020/12/16 01:25:22;;;;;;;15.48;11.00;;;;;;;7.28;75.17;101204.28;679578;29;5952;-61
2020/12/16 01:25:48;;;;;;;17.55;10.55;;;;;;;7.28;75.22;101206.97;673900;29;136748;-61
2020/12/16 01:26:09;;;;;;;15.55;10.77;;;;;;;7.28;74.97;101200.75;677654;29;24541;-61
2020/12/16 01:26:40;;;;;;;17.58;11.18;;;;;;;7.30;74.85;101207.66;671821;29;137518;-60
2020/12/16 01:27:02;;;;;;;15.63;10.18;;;;;;;7.30;74.79;101202.28;676005;29;91993;-61
2020/12/16 01:27:27;;;;;;;14.65;10.18;;;;;;;7.31;74.90;101208.53;675825;29;116059;-61
2020/12/16 01:27:51;;;;;;;15.65;10.50;;;;;;;7.30;74.87;101213.03;679101;29;16953;-61
2020/12/16 01:28:14;;;;;;;15.43;10.48;;;;;;;7.30;74.70;101201.47;674639;29;59354;-62
2020/12/16 01:28:44;;;;;;;16.10;10.20;;;;;;;7.30;75.02;101209.50;669527;29;127926;-62
2020/12/16 01:29:08;;;;;;;16.55;10.50;;;;;;;7.30;74.82;101214.88;669616;29;92142;-61
2020/12/16 01:29:31;;;;;;;15.95;10.55;;;;;;;7.30;75.10;101209.50;673984;29;68085;-61
2020/12/16 01:29:53;;;;;;;15.88;10.85;;;;;;;7.28;75.31;101216.88;682890;28;45254;-61
2020/12/16 01:30:15;;;;;;;15.75;10.63;;;;;;;7.28;75.35;101215.03;685090;28;1091;-61
2020/12/16 01:30:36;;;;;;;17.35;10.90;;;;;;;7.29;75.25;101202.44;684165;28;45276;-60
2020/12/16 01:30:58;;;;;;;17.23;10.95;;;;;;;7.29;75.40;101208.69;680250;29;48605;-61
2020/12/16 01:31:20;;;;;;;15.63;10.60;;;;;;;7.29;75.54;101208.69;678741;29;45744;-61
2020/12/16 01:31:44;;;;;;;14.55;9.77;;;;;;;7.30;75.63;101214.88;676024;29;16441;-61
2020/12/16 01:32:14;;;;;;;16.92;10.82;;;;;;;7.29;75.58;101213.19;677555;29;120428;-61
2020/12/16 01:32:36;;;;;;;14.13;9.98;;;;;;;7.30;75.42;101212.19;679497;29;69184;-61
2020/12/16 01:32:58;;;;;;;13.90;10.40;;;;;;;7.30;75.37;101209.50;678788;29;17311;-61
2020/12/16 01:33:20;;;;;;;14.68;10.43;;;;;;;7.30;75.64;101210.34;678642;29;40996;-61
2020/12/16 01:33:52;;;;;;;16.05;10.70;;;;;;;7.30;75.61;101215.72;672127;29;134761;-61
2020/12/16 01:34:29;;;;;;;17.60;10.37;;;;;;;7.29;75.66;101219.44;671288;29;162691;-61
2020/12/16 01:34:57;;;;;;;14.88;10.43;;;;;;;7.29;75.94;101222.13;671821;29;138739;-61
2020/12/16 01:35:19;;;;;;;15.73;10.52;;;;;;;7.29;75.94;101218.56;673066;29;27397;-61
2020/12/16 01:35:40;;;;;;;16.05;10.85;;;;;;;7.29;75.96;101218.56;675205;29;1197;-61
2020/12/16 01:36:02;;;;;;;16.13;11.07;;;;;;;7.29;75.78;101221.25;673621;29;27724;-60
2020/12/16 01:36:27;;;;;;;16.25;10.73;;;;;;;7.30;75.71;101222.94;672779;29;117788;-61
2020/12/16 01:36:49;;;;;;;14.73;10.40;;;;;;;7.30;75.79;101222.94;681851;28;44238;-61
2020/12/16 01:37:11;;;;;;;15.07;10.40;;;;;;;7.31;75.48;101224.66;678146;29;39099;-61
2020/12/16 01:37:42;;;;;;;17.30;10.68;;;;;;;7.31;75.51;101213.91;677430;29;137810;-61
2020/12/16 01:38:04;;;;;;;18.67;10.73;;;;;;;7.31;75.21;101217.44;675650;29;45293;-61
2020/12/16 01:38:33;;;;;;;17.48;10.98;;;;;;;7.31;75.10;101222.81;674788;29;138712;-61
2020/12/16 01:38:56;;;;;;;16.23;10.70;;;;;;;7.30;75.09;101215.72;679831;29;46385;-61
2020/12/16 01:39:18;;;;;;;16.52;10.82;;;;;;;7.31;75.45;101221.97;683065;28;72029;-61
2020/12/16 01:39:45;;;;;;;15.50;10.32;;;;;;;7.30;75.42;101221.09;675009;28;135854;-61
2020/12/16 01:40:10;;;;;;;15.07;10.20;;;;;;;7.30;75.68;101223.78;672231;29;137939;-61
2020/12/16 01:40:33;;;;;;;17.05;10.25;;;;;;;7.31;75.39;101224.66;678850;29;18529;-61
2020/12/16 01:41:02;;;;;;;16.40;10.45;;;;;;;7.31;75.12;101225.50;677420;29;39665;-61
2020/12/16 01:41:24;;;;;;;16.33;10.18;;;;;;;7.30;75.43;101225.63;677765;29;131562;-61
2020/12/16 01:41:48;;;;;;;15.40;10.52;;;;;;;7.30;75.36;101223.78;684733;28;35745;-60
2020/12/16 01:42:13;;;;;;;14.95;10.38;;;;;;;7.30;75.55;101225.63;675773;29;138908;-61
2020/12/16 01:42:35;;;;;;;14.98;10.50;;;;;;;7.31;75.44;101230.03;679201;29;45255;-59
2020/12/16 01:42:57;;;;;;;17.48;10.77;;;;;;;7.30;75.21;101225.63;680791;28;39540;-61
2020/12/16 01:43:19;;;;;;;17.17;10.52;;;;;;;7.30;75.43;101226.47;678038;29;48909;-62
2020/12/16 01:43:41;;;;;;;17.58;10.50;;;;;;;7.31;75.05;101224.66;678092;29;45747;-62
2020/12/16 01:44:13;;;;;;;16.35;10.80;;;;;;;7.31;75.08;101213.91;678226;29;64489;-62
2020/12/16 01:44:36;;;;;;;16.23;10.55;;;;;;;7.33;75.05;101233.41;674911;29;141916;-62
2020/12/16 01:45:03;;;;;;;15.43;10.88;;;;;;;7.31;75.11;101225.50;680647;28;108599;-62
2020/12/16 01:45:25;;;;;;;16.88;11.43;;;;;;;7.32;75.47;101231.72;681410;29;15860;-59
2020/12/16 01:45:49;;;;;;;16.38;11.15;;;;;;;7.31;75.57;101227.34;679360;28;92913;-61
2020/12/16 01:46:12;;;;;;;14.85;10.68;;;;;;;7.31;75.31;101228.19;682011;29;1204;-62
2020/12/16 01:46:35;;;;;;;15.18;10.85;;;;;;;7.32;75.42;101227.19;675765;29;23244;-62
2020/12/16 01:47:00;;;;;;;15.55;10.48;;;;;;;7.31;75.36;101227.34;675043;29;14997;-62